Time;durP1;ratioP1;P1;durP2;ratioP2;P2;SDS_P1;SDS_P2;PMS_P1;PMS_P2;Temp;Humidity;BMP_temperature;BMP_pressure;BME280_temperature;BME280_humidity;BME280_pressure;Samples;Min_cycle;Max_cycle;Signal;HPM_P1;HPM_P2
2020/12/31 00:02:12;;;;;;;10.98;9.73;;;2.40;73.30;;;;;;5027247;28;20354;-74
2020/12/31 00:04:39;;;;;;;13.45;9.95;;;2.40;73.30;;;;;;5044476;28;20079;-75
2020/12/31 00:07:05;;;;;;;19.52;11.38;;;2.40;73.30;;;;;;5044758;28;20040;-74
2020/12/31 00:09:31;;;;;;;12.90;10.30;;;2.30;73.10;;;;;;5045956;28;20094;-74
2020/12/31 00:11:58;;;;;;;13.48;10.50;;;2.30;73.10;;;;;;5044919;28;20028;-74
2020/12/31 00:14:24;;;;;;;15.05;11.10;;;2.30;73.10;;;;;;5045363;28;20021;-74
2020/12/31 00:16:50;;;;;;;12.90;10.98;;;2.30;73.10;;;;;;5044407;28;20037;-74
2020/12/31 00:19:16;;;;;;;11.75;9.88;;;2.30;73.20;;;;;;5028046;28;20153;-73
2020/12/31 00:21:42;;;;;;;14.85;10.65;;;2.20;73.50;;;;;;5044273;28;20524;-73
2020/12/31 00:24:08;;;;;;;13.07;9.30;;;2.20;73.00;;;;;;5044399;28;20029;-74
2020/12/31 00:26:34;;;;;;;17.35;10.38;;;2.20;73.00;;;;;;5046604;28;20028;-74
2020/12/31 00:29:00;;;;;;;13.85;10.00;;;2.10;72.90;;;;;;5028453;28;20059;-73
2020/12/31 00:31:26;;;;;;;13.35;10.13;;;2.10;72.90;;;;;;5045787;28;20567;-75
2020/12/31 00:33:52;;;;;;;13.40;9.48;;;2.10;72.90;;;;;;5028364;28;20032;-73
2020/12/31 00:36:18;;;;;;;10.27;9.07;;;2.10;72.90;;;;;;5043987;28;20098;-73
2020/12/31 00:38:44;;;;;;;13.95;10.07;;;2.10;72.90;;;;;;5044471;28;20028;-74
2020/12/31 00:41:10;;;;;;;11.48;9.38;;;2.00;72.70;;;;;;5044136;28;20141;-74
2020/12/31 00:43:36;;;;;;;16.45;9.38;;;2.00;72.70;;;;;;5027186;28;20033;-75
2020/12/31 00:46:02;;;;;;;14.15;10.30;;;2.00;72.70;;;;;;5044088;28;20094;-74
2020/12/31 00:48:28;;;;;;;11.60;9.48;;;1.90;72.60;;;;;;5045368;28;20362;-74
2020/12/31 00:50:54;;;;;;;12.27;8.38;;;2.00;72.80;;;;;;5044407;28;20067;-73
2020/12/31 00:53:22;;;;;;;11.73;10.13;;;1.90;72.60;;;;;;5044283;28;20059;-74
2020/12/31 00:55:48;;;;;;;11.15;9.75;;;1.90;72.60;;;;;;5043766;28;20086;-74
2020/12/31 00:58:15;;;;;;;12.85;9.15;;;1.90;72.60;;;;;;5043333;28;20455;-74
2020/12/31 01:00:41;;;;;;;16.35;9.98;;;1.90;72.60;;;;;;5043176;28;20032;-73
2020/12/31 01:03:08;;;;;;;13.57;9.50;;;1.80;72.40;;;;;;5043014;28;20448;-75
2020/12/31 01:05:35;;;;;;;13.27;9.18;;;1.80;72.40;;;;;;5026967;28;20504;-73
2020/12/31 01:08:01;;;;;;;15.15;9.40;;;1.80;72.40;;;;;;5044246;28;20484;-74
2020/12/31 01:10:27;;;;;;;12.88;8.65;;;1.80;72.40;;;;;;5045473;28;20055;-73
2020/12/31 01:12:54;;;;;;;13.88;8.88;;;1.80;72.40;;;;;;5043107;28;20033;-73
2020/12/31 01:15:20;;;;;;;14.80;9.02;;;1.80;72.40;;;;;;5045031;28;20498;-74
2020/12/31 01:17:46;;;;;;;12.18;9.95;;;1.80;72.40;;;;;;5044881;28;20037;-74
2020/12/31 01:20:12;;;;;;;19.67;9.70;;;1.70;72.30;;;;;;5043414;28;20492;-74
2020/12/31 01:22:38;;;;;;;15.85;9.82;;;1.70;72.20;;;;;;5026889;28;20310;-75
2020/12/31 01:25:05;;;;;;;16.05;9.02;;;1.70;72.30;;;;;;5042912;28;20528;-74
2020/12/31 01:27:31;;;;;;;11.75;9.63;;;1.70;72.30;;;;;;5043229;28;20041;-73
2020/12/31 01:29:58;;;;;;;10.55;9.00;;;1.70;72.30;;;;;;5044999;28;20106;-73
2020/12/31 01:32:25;;;;;;;11.68;9.07;;;1.70;72.20;;;;;;5042531;28;20036;-74
2020/12/31 01:34:52;;;;;;;11.93;9.15;;;1.70;72.20;;;;;;5043426;28;20025;-73
2020/12/31 01:37:20;;;;;;;13.45;9.45;;;1.70;72.20;;;;;;5026640;28;20060;-75
2020/12/31 01:39:46;;;;;;;14.90;10.27;;;1.60;72.00;;;;;;5044671;28;20466;-73
2020/12/31 01:42:13;;;;;;;12.85;8.60;;;1.60;72.00;;;;;;5044330;28;20037;-74
2020/12/31 01:44:39;;;;;;;13.73;9.25;;;1.60;72.00;;;;;;5044832;28;20338;-73
2020/12/31 01:47:06;;;;;;;11.43;8.50;;;1.60;72.10;;;;;;5043005;28;20064;-73
2020/12/31 01:49:35;;;;;;;13.80;9.80;;;1.60;72.10;;;;;;5044414;28;20124;-74
2020/12/31 01:52:01;;;;;;;12.85;8.93;;;1.50;71.90;;;;;;5044584;28;20488;-74
2020/12/31 01:54:29;;;;;;;21.80;10.13;;;1.60;72.10;;;;;;5043860;28;20116;-74
2020/12/31 01:56:56;;;;;;;11.63;9.02;;;1.50;71.90;;;;;;5044081;28;20380;-73
2020/12/31 01:59:23;;;;;;;12.98;9.35;;;1.50;72.00;;;;;;5044759;28;20063;-74
2020/12/31 02:01:50;;;;;;;12.30;9.18;;;1.50;72.00;;;;;;5043655;28;20033;-74
2020/12/31 02:04:16;;;;;;;12.05;9.90;;;1.50;72.00;;;;;;5044464;28;20112;-75
2020/12/31 02:06:43;;;;;;;11.13;8.77;;;1.40;71.80;;;;;;5044474;28;20507;-74
2020/12/31 02:09:09;;;;;;;14.05;9.18;;;1.40;71.80;;;;;;5042641;28;20111;-75
2020/12/31 02:11:35;;;;;;;11.65;8.20;;;1.40;71.90;;;;;;5042126;28;20611;-74
2020/12/31 02:14:02;;;;;;;13.63;10.02;;;1.30;71.70;;;;;;5042273;28;20044;-74
2020/12/31 02:16:33;;;;;;;13.85;10.32;;;1.40;71.90;;;;;;5040166;28;20446;-73
2020/12/31 02:19:12;;;;;;;13.65;10.07;;;1.40;71.90;;;;;;5026165;28;20025;-74
2020/12/31 02:21:48;;;;;;;14.07;9.77;;;1.30;71.70;;;;;;5042381;28;20060;-74
2020/12/31 02:24:15;;;;;;;11.27;9.32;;;1.30;71.70;;;;;;5042698;28;20037;-73
2020/12/31 02:26:43;;;;;;;16.95;10.43;;;1.30;71.70;;;;;;5042873;28;20025;-74
2020/12/31 02:29:10;;;;;;;14.10;9.88;;;1.30;71.70;;;;;;5044125;28;20056;-75
2020/12/31 02:31:37;;;;;;;14.02;9.32;;;1.20;71.50;;;;;;5017995;28;20123;-73
2020/12/31 02:34:04;;;;;;;12.13;9.32;;;1.30;71.70;;;;;;5031980;28;20021;-74
2020/12/31 02:36:35;;;;;;;17.02;10.23;;;1.20;71.50;;;;;;5025947;28;20504;-74
2020/12/31 02:39:09;;;;;;;14.48;9.57;;;1.20;71.50;;;;;;5053693;28;20033;-74
2020/12/31 02:41:36;;;;;;;11.85;8.63;;;1.20;71.50;;;;;;5047717;28;20123;-74
2020/12/31 02:44:03;;;;;;;11.98;9.88;;;1.20;71.60;;;;;;5047832;28;20043;-74
2020/12/31 02:46:29;;;;;;;10.90;8.88;;;1.20;71.50;;;;;;5048531;28;20586;-73
2020/12/31 02:48:55;;;;;;;14.18;10.05;;;1.10;71.30;;;;;;5051150;28;20423;-73
2020/12/31 02:51:21;;;;;;;11.95;9.70;;;1.20;71.60;;;;;;5051448;28;20025;-73
2020/12/31 02:53:48;;;;;;;13.82;10.02;;;1.10;71.40;;;;;;5051532;28;20032;-74
2020/12/31 02:56:16;;;;;;;13.35;9.25;;;1.10;71.90;;;;;;5034210;28;20038;-74
2020/12/31 02:58:43;;;;;;;16.27;9.65;;;1.10;71.40;;;;;;5034581;28;20458;-74
2020/12/31 03:01:09;;;;;;;14.27;9.63;;;1.10;71.40;;;;;;5050200;28;20032;-75
2020/12/31 03:03:36;;;;;;;12.27;9.15;;;1.00;71.30;;;;;;5050999;28;20110;-75
2020/12/31 03:06:03;;;;;;;10.98;9.48;;;1.00;71.30;;;;;;5051282;28;20033;-74
2020/12/31 03:08:29;;;;;;;15.93;8.88;;;1.00;71.30;;;;;;5051828;28;20033;-73
2020/12/31 03:10:56;;;;;;;15.00;9.75;;;1.00;71.30;;;;;;5033790;28;20070;-73
2020/12/31 03:13:24;;;;;;;16.02;9.70;;;1.00;71.30;;;;;;5050819;28;20591;-74
2020/12/31 03:15:52;;;;;;;15.90;9.63;;;1.00;71.30;;;;;;5050676;28;20536;-75
2020/12/31 03:18:18;;;;;;;14.02;9.80;;;0.90;71.20;;;;;;5050726;28;20106;-74
2020/12/31 03:20:45;;;;;;;16.02;9.57;;;0.90;71.20;;;;;;5033888;28;20119;-73
2020/12/31 03:23:15;;;;;;;17.20;10.25;;;0.90;71.20;;;;;;5033931;28;20074;-75
2020/12/31 03:25:42;;;;;;;14.80;9.50;;;0.90;71.20;;;;;;5051271;28;20068;-73
2020/12/31 03:28:08;;;;;;;13.82;9.45;;;0.90;71.20;;;;;;5050849;28;20025;-73
2020/12/31 03:30:36;;;;;;;16.70;9.52;;;0.80;71.00;;;;;;5051122;28;20031;-74
2020/12/31 03:33:03;;;;;;;15.65;10.18;;;0.80;71.00;;;;;;5052067;28;20044;-74
2020/12/31 03:35:29;;;;;;;14.75;10.05;;;0.80;71.00;;;;;;5051630;28;20473;-73
2020/12/31 03:37:55;;;;;;;12.93;9.77;;;0.80;71.00;;;;;;5051813;28;20035;-74
2020/12/31 03:40:22;;;;;;;11.80;9.43;;;0.80;71.00;;;;;;5051634;28;20029;-75
2020/12/31 03:42:48;;;;;;;14.85;9.23;;;0.80;71.00;;;;;;5051344;28;20059;-74
2020/12/31 03:45:15;;;;;;;14.57;9.40;;;0.70;70.90;;;;;;5051515;28;20106;-73
2020/12/31 03:47:41;;;;;;;19.95;10.15;;;0.70;70.90;;;;;;5050667;28;20151;-73
2020/12/31 03:50:07;;;;;;;15.27;9.90;;;0.70;70.90;;;;;;5049782;28;20059;-73
2020/12/31 03:52:33;;;;;;;12.35;9.38;;;0.70;70.90;;;;;;5049196;28;20677;-74
2020/12/31 03:55:00;;;;;;;10.18;8.48;;;0.70;71.00;;;;;;5042243;28;20032;-73
2020/12/31 03:57:26;;;;;;;14.77;9.32;;;0.60;70.80;;;;;;5049904;28;20029;-74
2020/12/31 03:59:52;;;;;;;16.90;8.98;;;0.60;70.80;;;;;;5049754;28;20067;-74
2020/12/31 04:02:18;;;;;;;14.05;9.50;;;0.60;70.90;;;;;;5032451;28;20578;-74
2020/12/31 04:04:44;;;;;;;15.13;10.23;;;0.60;70.90;;;;;;5051133;28;20068;-74
2020/12/31 04:07:10;;;;;;;13.52;9.57;;;0.60;70.90;;;;;;5051185;28;20628;-74
2020/12/31 04:09:36;;;;;;;16.35;10.20;;;0.50;70.80;;;;;;5051072;28;20087;-74
2020/12/31 04:12:03;;;;;;;12.50;9.90;;;0.60;71.00;;;;;;5049913;28;20443;-73
2020/12/31 04:14:29;;;;;;;12.60;9.32;;;0.60;71.00;;;;;;5050804;28;20036;-73
2020/12/31 04:16:55;;;;;;;14.15;9.15;;;0.50;70.90;;;;;;5049619;28;20029;-73
2020/12/31 04:19:21;;;;;;;11.68;8.40;;;0.50;70.90;;;;;;5051106;28;20025;-73
2020/12/31 04:21:48;;;;;;;10.88;8.60;;;0.50;70.90;;;;;;5049233;28;20036;-73
2020/12/31 04:24:14;;;;;;;12.75;9.13;;;0.50;70.90;;;;;;5049316;28;20029;-73
2020/12/31 04:26:40;;;;;;;14.13;9.65;;;0.50;70.90;;;;;;5048999;28;20163;-72
2020/12/31 04:29:06;;;;;;;16.50;8.40;;;0.50;70.90;;;;;;5050667;28;20021;-74
2020/12/31 04:31:32;;;;;;;15.48;9.85;;;0.50;70.90;;;;;;5039171;28;20034;-74
2020/12/31 04:33:58;;;;;;;13.30;9.05;;;0.50;70.90;;;;;;5045607;28;20615;-74
2020/12/31 04:36:23;;;;;;;12.07;8.60;;;0.40;70.80;;;;;;5030515;28;20128;-74
2020/12/31 04:38:49;;;;;;;18.42;9.43;;;0.50;70.90;;;;;;5029442;28;20033;-73
2020/12/31 04:41:15;;;;;;;13.05;8.95;;;0.40;70.80;;;;;;5012386;28;20086;-74
2020/12/31 04:43:42;;;;;;;13.77;8.68;;;0.40;70.80;;;;;;5030308;28;20118;-74
2020/12/31 04:46:11;;;;;;;14.80;9.32;;;0.40;70.80;;;;;;5030590;28;20436;-73
2020/12/31 04:48:38;;;;;;;12.95;8.60;;;0.40;70.80;;;;;;5028740;28;20041;-74
2020/12/31 04:51:11;;;;;;;12.98;8.70;;;0.40;70.80;;;;;;5029445;28;20034;-73
2020/12/31 04:53:40;;;;;;;12.10;8.80;;;0.30;70.70;;;;;;5028990;28;20045;-74
2020/12/31 04:56:06;;;;;;;12.05;8.13;;;0.40;70.90;;;;;;5030186;28;20705;-74
2020/12/31 04:58:32;;;;;;;12.55;8.35;;;0.30;70.70;;;;;;5030049;28;20515;-73
2020/12/31 05:00:58;;;;;;;12.05;9.00;;;0.30;70.70;;;;;;5028782;28;20061;-73
2020/12/31 05:03:24;;;;;;;14.10;8.40;;;0.30;70.70;;;;;;5028979;28;20045;-74
2020/12/31 05:05:55;;;;;;;11.25;8.90;;;0.30;70.70;;;;;;5028205;28;20540;-73
2020/12/31 05:08:26;;;;;;;9.27;7.07;;;0.30;70.70;;;;;;5029146;28;20057;-74
2020/12/31 05:10:56;;;;;;;11.05;8.38;;;0.30;70.80;;;;;;5029490;28;20036;-73
2020/12/31 05:13:22;;;;;;;10.27;7.70;;;0.20;70.60;;;;;;5029857;28;20021;-73
2020/12/31 05:15:48;;;;;;;14.00;8.15;;;0.20;70.60;;;;;;5030115;28;20034;-73
2020/12/31 05:18:22;;;;;;;10.18;8.40;;;0.20;70.60;;;;;;5030129;28;20033;-73
2020/12/31 05:20:51;;;;;;;11.00;8.00;;;0.20;70.60;;;;;;5028385;28;20033;-73
2020/12/31 05:23:19;;;;;;;10.32;7.43;;;0.20;70.60;;;;;;5029924;28;20099;-74
2020/12/31 05:25:46;;;;;;;12.95;7.85;;;0.20;70.60;;;;;;5049029;28;20033;-72
2020/12/31 05:28:28;;;;;;;14.70;8.65;;;0.20;70.60;;;;;;5048251;28;20029;-73
2020/12/31 05:30:59;;;;;;;12.52;9.00;;;0.20;70.60;;;;;;5048317;28;20033;-73
2020/12/31 05:33:29;;;;;;;11.15;7.03;;;0.20;70.60;;;;;;5048080;28;20445;-73
2020/12/31 05:36:23;;;;;;;12.50;7.60;;;0.20;70.60;;;;;;5049822;28;20032;-73
2020/12/31 05:38:57;;;;;;;11.33;7.47;;;0.20;70.70;;;;;;5031512;28;20029;-75
2020/12/31 05:41:32;;;;;;;9.27;6.50;;;0.10;70.40;;;;;;5047660;28;20017;-73
2020/12/31 05:44:04;;;;;;;10.68;7.43;;;0.10;70.40;;;;;;5048284;28;20512;-75
2020/12/31 05:46:30;;;;;;;12.43;6.93;;;0.10;70.40;;;;;;5048941;28;20041;-75
2020/12/31 05:49:01;;;;;;;12.00;8.23;;;0.10;70.50;;;;;;5043190;28;20040;-74
2020/12/31 05:51:32;;;;;;;9.32;7.28;;;0.10;70.50;;;;;;5042805;28;20078;-74
2020/12/31 05:54:10;;;;;;;11.50;6.75;;;0.00;70.30;;;;;;5037949;28;20045;-74
2020/12/31 05:56:41;;;;;;;9.80;6.65;;;0.00;70.30;;;;;;5032125;28;20078;-75
2020/12/31 05:59:22;;;;;;;12.20;7.85;;;0.00;70.30;;;;;;5045304;28;20154;-74
2020/12/31 06:01:57;;;;;;;10.80;7.43;;;0.00;70.30;;;;;;5044522;28;20029;-75
2020/12/31 06:04:47;;;;;;;12.05;7.97;;;0.00;70.30;;;;;;5028102;28;20026;-75
2020/12/31 06:07:33;;;;;;;14.95;7.82;;;0.00;70.40;;;;;;5034479;28;20033;-73
2020/12/31 06:10:07;;;;;;;9.15;6.78;;;0.00;70.30;;;;;;5023877;28;20107;-74
2020/12/31 06:12:56;;;;;;;10.88;6.72;;;-0.10;70.20;;;;;;5034949;28;20073;-74
2020/12/31 06:15:28;;;;;;;9.88;7.25;;;-0.10;70.20;;;;;;5048378;28;20044;-73
2020/12/31 06:17:55;;;;;;;12.68;7.32;;;-0.10;70.20;;;;;;5046042;28;20553;-74
2020/12/31 06:20:26;;;;;;;9.95;6.68;;;-0.10;70.20;;;;;;5034004;28;20036;-73
2020/12/31 06:23:01;;;;;;;9.60;7.25;;;-0.10;70.20;;;;;;5036556;28;20081;-73
2020/12/31 06:25:33;;;;;;;9.02;6.55;;;-0.20;70.10;;;;;;5046401;28;20533;-73
2020/12/31 06:28:05;;;;;;;11.20;7.72;;;-0.20;70.10;;;;;;5040378;28;20054;-80
2020/12/31 06:30:33;;;;;;;11.77;7.57;;;-0.20;70.10;;;;;;5043066;28;20453;-81
2020/12/31 06:33:08;;;;;;;10.02;7.43;;;-0.20;70.20;;;;;;5029876;28;20079;-79
2020/12/31 06:35:34;;;;;;;13.18;7.85;;;-0.20;70.10;;;;;;5045919;28;20407;-77
2020/12/31 06:38:00;;;;;;;10.85;8.20;;;-0.20;70.10;;;;;;5046522;28;20542;-79
2020/12/31 06:40:32;;;;;;;13.27;8.95;;;-0.20;70.00;;;;;;5038665;28;20025;-77
2020/12/31 06:43:14;;;;;;;13.20;8.20;;;-0.20;69.90;;;;;;5038509;28;20416;-79
2020/12/31 06:45:43;;;;;;;12.50;8.85;;;-0.20;69.80;;;;;;5031960;28;20055;-86
2020/12/31 06:48:27;;;;;;;11.30;8.23;;;-0.20;69.80;;;;;;5027230;28;20065;-82
2020/12/31 06:50:53;;;;;;;;;;;-0.30;69.60;;;;;;5029462;28;20043;-84
2020/12/31 06:53:31;;;;;;;13.55;8.65;;;-0.30;69.60;;;;;;5027170;28;19999;-82
2020/12/31 06:56:00;;;;;;;11.20;8.63;;;-0.30;69.40;;;;;;5043226;28;20110;-79
2020/12/31 06:58:27;;;;;;;14.73;9.88;;;-0.30;69.40;;;;;;5035170;28;20040;-85
2020/12/31 07:00:54;;;;;;;12.23;9.23;;;-0.30;69.40;;;;;;5043675;28;20053;-78
2020/12/31 07:03:42;;;;;;;11.93;8.43;;;-0.40;69.20;;;;;;5040543;28;20371;-80
2020/12/31 07:06:23;;;;;;;12.50;9.10;;;-0.40;69.20;;;;;;5037119;28;20025;-79
2020/12/31 07:08:49;;;;;;;10.23;8.32;;;-0.40;69.20;;;;;;5035624;28;20037;-78
2020/12/31 07:11:31;;;;;;;13.63;8.73;;;-0.40;69.20;;;;;;5038503;28;20051;-85
2020/12/31 07:13:57;;;;;;;11.25;8.63;;;-0.50;69.00;;;;;;5072373;28;20033;-77
2020/12/31 07:16:40;;;;;;;15.82;9.40;;;-0.50;69.00;;;;;;5024154;28;20140;-79
2020/12/31 07:19:08;;;;;;;11.65;8.68;;;-0.50;68.90;;;;;;5037001;28;20043;-77
2020/12/31 07:21:37;;;;;;;10.52;8.90;;;-0.50;68.90;;;;;;5044779;28;20033;-78
2020/12/31 07:24:50;;;;;;;15.85;8.75;;;-0.50;68.90;;;;;;5044608;28;20167;-79
2020/12/31 07:27:20;;;;;;;13.93;9.15;;;-0.60;68.70;;;;;;4987932;28;20268;-78
2020/12/31 07:30:22;;;;;;;10.50;8.45;;;-0.60;68.70;;;;;;5039705;28;20386;-83
2020/12/31 07:32:55;;;;;;;16.05;9.05;;;-0.60;68.60;;;;;;4988406;28;20128;-82
2020/12/31 07:35:33;;;;;;;12.32;9.73;;;-0.70;68.50;;;;;;5040824;28;20033;-82
2020/12/31 07:38:11;;;;;;;13.75;8.77;;;-0.60;68.60;;;;;;5044340;28;20040;-80
2020/12/31 07:40:40;;;;;;;15.30;9.43;;;-0.70;68.40;;;;;;5043713;28;20025;-80
2020/12/31 07:43:08;;;;;;;13.80;10.85;;;-0.70;68.50;;;;;;5027401;28;20068;-81
2020/12/31 07:45:35;;;;;;;17.52;9.60;;;-0.70;68.40;;;;;;5029113;28;20108;-78
2020/12/31 07:48:01;;;;;;;17.35;9.98;;;-0.70;68.40;;;;;;5047319;28;20072;-81
2020/12/31 07:50:28;;;;;;;13.38;10.43;;;-0.70;68.40;;;;;;5046120;28;20324;-80
2020/12/31 07:52:54;;;;;;;12.52;9.45;;;-0.70;68.40;;;;;;5045417;28;20037;-82
2020/12/31 07:55:20;;;;;;;14.10;9.13;;;-0.80;68.20;;;;;;5045242;28;20044;-81
2020/12/31 07:57:46;;;;;;;13.00;9.75;;;-0.80;68.20;;;;;;5045279;28;20833;-81
2020/12/31 08:00:15;;;;;;;15.50;10.13;;;-0.80;68.20;;;;;;5028507;28;20107;-81
2020/12/31 08:02:49;;;;;;;13.07;9.23;;;-0.80;68.10;;;;;;5025552;28;20517;-81
2020/12/31 08:05:20;;;;;;;11.43;9.70;;;-0.80;68.10;;;;;;5026543;28;20025;-83
2020/12/31 08:07:51;;;;;;;13.02;10.32;;;-0.80;68.10;;;;;;5028150;28;20496;-82
2020/12/31 08:10:17;;;;;;;12.40;9.13;;;-0.80;68.10;;;;;;5029223;28;20032;-81
2020/12/31 08:12:53;;;;;;;13.18;9.77;;;-0.80;68.10;;;;;;5030249;28;20032;-83
2020/12/31 08:15:24;;;;;;;15.77;10.43;;;-0.80;68.00;;;;;;5046300;28;20060;-81
2020/12/31 08:17:52;;;;;;;12.15;9.38;;;-0.90;67.80;;;;;;5045433;28;20094;-81
2020/12/31 08:20:23;;;;;;;15.90;10.40;;;-0.80;68.00;;;;;;5044911;28;20036;-80
2020/12/31 08:22:57;;;;;;;16.05;9.63;;;-0.90;67.80;;;;;;5047299;28;20413;-82
2020/12/31 08:25:40;;;;;;;14.73;9.45;;;-0.90;67.70;;;;;;5040877;28;20189;-80
2020/12/31 08:28:07;;;;;;;14.25;9.75;;;-0.90;67.70;;;;;;5040427;28;20037;-79
2020/12/31 08:30:35;;;;;;;12.63;9.65;;;-0.90;67.70;;;;;;5044273;28;20269;-79
2020/12/31 08:33:02;;;;;;;14.30;9.80;;;-0.90;67.70;;;;;;5045553;28;20041;-79
2020/12/31 08:35:31;;;;;;;13.55;10.60;;;-0.90;67.70;;;;;;5042534;28;20025;-76
2020/12/31 08:38:21;;;;;;;12.60;9.20;;;-0.90;67.60;;;;;;5042734;28;20033;-78
2020/12/31 08:40:58;;;;;;;10.07;7.53;;;-0.90;67.60;;;;;;5044241;28;20444;-77
2020/12/31 08:43:30;;;;;;;9.75;7.45;;;-0.90;67.60;;;;;;5045390;28;20151;-80
2020/12/31 08:45:57;;;;;;;10.77;7.47;;;-0.90;67.60;;;;;;5045146;28;20484;-77
2020/12/31 08:48:27;;;;;;;13.32;7.63;;;-0.90;67.60;;;;;;5043400;28;20040;-78
2020/12/31 08:51:09;;;;;;;14.93;9.00;;;-0.90;67.60;;;;;;5045493;28;20045;-77
2020/12/31 08:53:58;;;;;;;15.10;7.63;;;-0.90;67.50;;;;;;5040123;28;20056;-80
2020/12/31 08:56:29;;;;;;;14.73;8.20;;;-0.90;67.40;;;;;;5044229;28;20078;-78
2020/12/31 08:59:15;;;;;;;15.88;9.40;;;-0.90;67.40;;;;;;5045171;28;20455;-79
2020/12/31 09:01:46;;;;;;;11.95;8.68;;;-0.90;67.40;;;;;;5044276;28;20075;-77
2020/12/31 09:04:19;;;;;;;16.83;9.25;;;-0.90;67.40;;;;;;5044872;28;20041;-78
2020/12/31 09:06:47;;;;;;;15.10;9.13;;;-0.90;67.30;;;;;;5045165;28;20106;-78
2020/12/31 09:09:22;;;;;;;14.27;9.10;;;-0.90;67.30;;;;;;5043475;28;20118;-82
2020/12/31 09:11:59;;;;;;;15.82;9.23;;;-0.90;67.30;;;;;;5045497;28;20522;-81
2020/12/31 09:14:26;;;;;;;16.88;9.70;;;-0.80;67.40;;;;;;5043493;28;20143;-82
2020/12/31 09:16:52;;;;;;;16.33;9.77;;;-0.80;67.40;;;;;;5027474;28;20028;-80
2020/12/31 09:19:18;;;;;;;16.20;10.60;;;-0.80;67.40;;;;;;5044588;28;20304;-81
2020/12/31 09:21:46;;;;;;;13.90;9.77;;;-0.80;67.30;;;;;;5045213;28;20029;-81
2020/12/31 09:24:22;;;;;;;13.23;10.02;;;-0.80;67.30;;;;;;5043025;28;20113;-80
2020/12/31 09:26:59;;;;;;;15.73;10.13;;;-0.80;67.30;;;;;;5042865;28;20434;-77
2020/12/31 09:29:26;;;;;;;15.88;9.98;;;-0.80;67.20;;;;;;5044271;28;20044;-80
2020/12/31 09:31:53;;;;;;;18.80;9.40;;;-0.80;67.30;;;;;;5044365;28;20511;-81
2020/12/31 09:34:20;;;;;;;16.27;10.60;;;-0.80;67.20;;;;;;5042907;28;20321;-80
2020/12/31 09:36:46;;;;;;;18.38;10.32;;;-0.70;67.40;;;;;;5044947;28;20032;-78
2020/12/31 09:39:12;;;;;;;16.27;10.45;;;-0.70;67.30;;;;;;5042842;28;20097;-80
2020/12/31 09:41:38;;;;;;;19.67;10.88;;;-0.60;67.50;;;;;;5045104;28;20025;-80
2020/12/31 09:44:05;;;;;;;15.57;10.13;;;-0.60;67.50;;;;;;5043115;28;20488;-78
2020/12/31 09:46:32;;;;;;;16.15;10.85;;;-0.60;67.40;;;;;;5042233;28;20437;-79
2020/12/31 09:48:58;;;;;;;16.58;10.90;;;-0.60;67.40;;;;;;5043370;28;20872;-79
2020/12/31 09:51:24;;;;;;;18.45;11.63;;;-0.60;67.30;;;;;;5043309;28;20132;-80
2020/12/31 09:53:51;;;;;;;13.88;10.20;;;-0.50;67.50;;;;;;5044170;28;20028;-80
2020/12/31 09:56:20;;;;;;;13.70;10.23;;;-0.50;67.40;;;;;;5044069;28;20395;-84
2020/12/31 09:58:46;;;;;;;16.27;11.07;;;-0.50;67.40;;;;;;5029223;28;20179;-84
2020/12/31 10:01:14;;;;;;;13.40;10.95;;;-0.50;67.40;;;;;;5060052;28;20120;-83
2020/12/31 10:03:40;;;;;;;16.85;10.57;;;-0.40;67.50;;;;;;5043931;28;20041;-81
2020/12/31 10:06:07;;;;;;;17.45;10.52;;;-0.40;67.50;;;;;;5043159;28;20040;-80
2020/12/31 10:08:33;;;;;;;19.02;11.52;;;-0.40;67.50;;;;;;5025521;28;20540;-80
2020/12/31 10:11:00;;;;;;;15.15;10.75;;;-0.40;67.50;;;;;;5026699;28;20128;-81
2020/12/31 10:13:26;;;;;;;12.73;10.68;;;-0.40;67.40;;;;;;5026259;28;20123;-80
2020/12/31 10:15:52;;;;;;;16.85;11.50;;;-0.40;67.40;;;;;;5043451;28;20487;-80
2020/12/31 10:18:18;;;;;;;16.02;10.93;;;-0.30;67.60;;;;;;5042066;28;20151;-81
2020/12/31 10:20:44;;;;;;;13.68;10.45;;;-0.30;67.60;;;;;;5043062;28;20036;-79
2020/12/31 10:23:10;;;;;;;13.40;10.82;;;-0.30;67.50;;;;;;5043421;28;20071;-80
2020/12/31 10:25:36;;;;;;;14.57;10.20;;;-0.30;67.50;;;;;;5043176;28;20084;-78
2020/12/31 10:28:02;;;;;;;17.38;12.00;;;-0.20;67.70;;;;;;5044192;28;20182;-80
2020/12/31 10:30:28;;;;;;;14.65;10.35;;;-0.20;67.60;;;;;;5025504;28;20028;-81
2020/12/31 10:32:54;;;;;;;11.70;9.15;;;-0.20;67.60;;;;;;5025924;28;20029;-79
2020/12/31 10:35:20;;;;;;;14.43;11.10;;;-0.10;67.80;;;;;;5042843;28;20036;-78
2020/12/31 10:37:46;;;;;;;14.10;10.43;;;-0.10;68.30;;;;;;5043000;28;20834;-78
2020/12/31 10:40:12;;;;;;;17.30;10.25;;;-0.10;67.70;;;;;;5043475;28;20179;-77
2020/12/31 10:42:38;;;;;;;11.45;10.25;;;0.00;67.90;;;;;;5045565;28;20041;-83
2020/12/31 10:45:04;;;;;;;11.95;10.20;;;0.00;67.80;;;;;;5012435;28;20032;-86
2020/12/31 10:47:30;;;;;;;13.25;10.10;;;0.00;67.80;;;;;;5028352;28;20049;-85
2020/12/31 10:49:57;;;;;;;10.95;9.57;;;0.10;68.00;;;;;;5028309;28;20495;-83
2020/12/31 10:52:23;;;;;;;15.65;9.48;;;0.10;68.00;;;;;;5044306;28;20436;-86
2020/12/31 10:54:49;;;;;;;14.90;9.75;;;0.10;68.00;;;;;;5044191;28;20116;-86
2020/12/31 10:57:14;;;;;;;11.52;9.63;;;0.20;68.10;;;;;;5042249;28;20025;-74
2020/12/31 10:59:40;;;;;;;14.40;11.07;;;0.10;67.90;;;;;;5029008;28;20056;-74
2020/12/31 11:02:06;;;;;;;12.65;9.05;;;0.20;68.20;;;;;;5045713;28;20029;-74
2020/12/31 11:04:32;;;;;;;13.75;9.93;;;0.30;68.40;;;;;;5045377;28;20124;-73
2020/12/31 11:06:58;;;;;;;13.10;9.43;;;0.30;68.30;;;;;;5046542;28;20441;-74
2020/12/31 11:09:24;;;;;;;12.07;10.05;;;0.30;68.20;;;;;;5047021;28;20113;-74
2020/12/31 11:11:50;;;;;;;14.68;10.75;;;0.40;68.30;;;;;;5046451;28;20060;-74
2020/12/31 11:14:16;;;;;;;11.38;9.13;;;0.40;68.30;;;;;;5046722;28;20029;-73
2020/12/31 11:16:52;;;;;;;12.20;9.23;;;0.50;68.50;;;;;;5044296;28;20040;-73
2020/12/31 11:19:19;;;;;;;11.70;9.00;;;0.50;68.40;;;;;;5044890;28;20388;-74
2020/12/31 11:21:45;;;;;;;14.73;9.40;;;0.50;68.40;;;;;;5046541;28;20472;-73
2020/12/31 11:24:11;;;;;;;12.88;9.98;;;0.60;68.60;;;;;;5046010;28;20183;-74
2020/12/31 11:26:37;;;;;;;14.35;9.93;;;0.60;68.60;;;;;;5044693;28;20032;-73
2020/12/31 11:29:03;;;;;;;11.07;9.40;;;0.60;68.50;;;;;;5046420;28;20032;-74
2020/12/31 11:31:30;;;;;;;13.27;10.18;;;0.70;68.70;;;;;;5044791;28;20615;-75
2020/12/31 11:33:57;;;;;;;12.27;10.52;;;0.70;68.70;;;;;;5043916;28;20084;-75
2020/12/31 11:36:24;;;;;;;11.25;9.48;;;0.70;68.70;;;;;;5046383;28;20100;-73
2020/12/31 11:38:51;;;;;;;10.82;9.25;;;0.80;68.90;;;;;;5028915;28;20036;-74
2020/12/31 11:41:17;;;;;;;12.55;10.05;;;0.80;68.80;;;;;;5044747;28;20148;-74
2020/12/31 11:43:44;;;;;;;12.50;10.18;;;0.90;69.00;;;;;;5046311;28;20617;-73
2020/12/31 11:46:10;;;;;;;12.25;10.10;;;0.90;69.00;;;;;;5044608;28;20566;-74
2020/12/31 11:48:36;;;;;;;16.10;11.45;;;0.90;69.00;;;;;;5046703;28;20037;-75
2020/12/31 11:51:04;;;;;;;15.93;11.00;;;1.00;69.20;;;;;;5045994;28;20025;-72
2020/12/31 11:53:30;;;;;;;14.35;10.90;;;1.00;69.10;;;;;;5046334;28;20443;-74
2020/12/31 11:56:00;;;;;;;15.93;12.10;;;1.00;69.10;;;;;;5045966;28;20449;-74
2020/12/31 11:58:26;;;;;;;12.95;10.93;;;1.10;69.30;;;;;;5044202;28;20029;-74
2020/12/31 12:00:52;;;;;;;13.88;10.93;;;1.10;69.30;;;;;;5043803;28;20033;-73
2020/12/31 12:03:18;;;;;;;11.00;9.82;;;1.10;69.30;;;;;;5043828;28;20614;-76
2020/12/31 12:05:44;;;;;;;16.33;11.63;;;1.10;69.30;;;;;;5045048;28;20037;-73
2020/12/31 12:08:10;;;;;;;13.30;10.98;;;1.20;69.50;;;;;;5043218;28;20464;-74
2020/12/31 12:10:36;;;;;;;16.02;11.25;;;1.20;69.50;;;;;;5045940;28;20029;-75
2020/12/31 12:13:02;;;;;;;12.50;10.52;;;1.20;69.50;;;;;;5027841;28;20127;-76
2020/12/31 12:15:28;;;;;;;14.10;10.75;;;1.20;69.50;;;;;;5046025;28;20025;-75
2020/12/31 12:17:54;;;;;;;11.27;10.18;;;1.30;69.70;;;;;;5044557;28;20316;-76
2020/12/31 12:20:20;;;;;;;11.57;10.00;;;1.20;69.50;;;;;;5045693;28;20060;-75
2020/12/31 12:22:46;;;;;;;12.05;10.80;;;1.30;69.70;;;;;;5048236;28;20044;-76
2020/12/31 12:25:13;;;;;;;12.50;10.90;;;1.40;69.90;;;;;;5028885;28;20056;-76
2020/12/31 12:27:40;;;;;;;11.90;10.70;;;1.40;69.90;;;;;;5044896;28;20083;-75
2020/12/31 12:30:09;;;;;;;11.57;10.30;;;1.40;69.90;;;;;;5024621;28;20041;-74
2020/12/31 12:32:39;;;;;;;11.65;10.02;;;1.40;69.80;;;;;;5030412;28;20132;-74
2020/12/31 12:35:09;;;;;;;11.93;10.68;;;1.50;70.00;;;;;;5044117;28;20428;-74
2020/12/31 12:37:35;;;;;;;11.68;9.32;;;1.50;70.00;;;;;;5044980;28;20033;-74
2020/12/31 12:40:03;;;;;;;12.25;10.18;;;1.60;70.20;;;;;;5043301;28;20116;-73
2020/12/31 12:42:32;;;;;;;17.10;10.68;;;1.60;70.20;;;;;;5043613;28;20045;-74
2020/12/31 12:44:58;;;;;;;11.88;9.70;;;1.70;70.40;;;;;;5043489;28;20025;-72
2020/12/31 12:47:24;;;;;;;10.60;9.52;;;1.70;70.30;;;;;;5045094;28;20049;-74
2020/12/31 12:49:50;;;;;;;13.75;9.38;;;1.70;70.30;;;;;;5043826;28;20456;-72